sensor_id;sensor_type;location;lat;lon;timestamp;temperature;humidity
73955;DHT22;62306;52.516;13.290;2023-02-01T00:02:21;4.80;94.90
73955;DHT22;62306;52.516;13.290;2023-02-01T00:04:47;4.80;94.60
73955;DHT22;62306;52.516;13.290;2023-02-01T00:07:14;4.90;94.70
73955;DHT22;62306;52.516;13.290;2023-02-01T00:09:41;4.90;94.20
73955;DHT22;62306;52.516;13.290;2023-02-01T00:12:08;4.90;94.40
73955;DHT22;62306;52.516;13.290;2023-02-01T00:14:36;5.00;93.80
73955;DHT22;62306;52.516;13.290;2023-02-01T00:17:05;5.00;93.50
73955;DHT22;62306;52.516;13.290;2023-02-01T00:19:32;5.00;93.10
73955;DHT22;62306;52.516;13.290;2023-02-01T00:22:00;4.90;93.30
73955;DHT22;62306;52.516;13.290;2023-02-01T00:24:27;4.90;93.10
73955;DHT22;62306;52.516;13.290;2023-02-01T00:26:54;4.80;93.00
73955;DHT22;62306;52.516;13.290;2023-02-01T00:29:21;4.90;92.70
73955;DHT22;62306;52.516;13.290;2023-02-01T00:31:51;4.80;92.80
73955;DHT22;62306;52.516;13.290;2023-02-01T00:34:18;4.80;92.90
73955;DHT22;62306;52.516;13.290;2023-02-01T00:36:46;4.70;93.00
73955;DHT22;62306;52.516;13.290;2023-02-01T00:39:14;4.70;93.00
73955;DHT22;62306;52.516;13.290;2023-02-01T00:41:41;4.70;93.10
73955;DHT22;62306;52.516;13.290;2023-02-01T00:44:08;4.60;93.20
73955;DHT22;62306;52.516;13.290;2023-02-01T00:46:35;4.70;93.30
73955;DHT22;62306;52.516;13.290;2023-02-01T00:49:03;4.70;93.30
73955;DHT22;62306;52.516;13.290;2023-02-01T00:51:31;4.60;93.50
73955;DHT22;62306;52.516;13.290;2023-02-01T00:53:57;4.60;93.80
73955;DHT22;62306;52.516;13.290;2023-02-01T00:56:24;4.60;94.20
73955;DHT22;62306;52.516;13.290;2023-02-01T00:58:53;4.50;94.40
73955;DHT22;62306;52.516;13.290;2023-02-01T01:01:21;4.50;94.40
73955;DHT22;62306;52.516;13.290;2023-02-01T01:03:49;4.50;94.70
73955;DHT22;62306;52.516;13.290;2023-02-01T01:06:21;4.40;94.60
73955;DHT22;62306;52.516;13.290;2023-02-01T01:08:50;4.50;94.50
73955;DHT22;62306;52.516;13.290;2023-02-01T01:11:19;4.50;94.60
73955;DHT22;62306;52.516;13.290;2023-02-01T01:13:47;4.40;94.80
73955;DHT22;62306;52.516;13.290;2023-02-01T01:16:14;4.40;95.20
73955;DHT22;62306;52.516;13.290;2023-02-01T01:18:42;4.40;95.10
73955;DHT22;62306;52.516;13.290;2023-02-01T01:21:12;4.40;94.90
73955;DHT22;62306;52.516;13.290;2023-02-01T01:23:41;4.40;94.80
73955;DHT22;62306;52.516;13.290;2023-02-01T01:26:09;4.40;94.70
73955;DHT22;62306;52.516;13.290;2023-02-01T01:28:36;4.40;95.00
73955;DHT22;62306;52.516;13.290;2023-02-01T01:31:03;4.40;94.80
73955;DHT22;62306;52.516;13.290;2023-02-01T01:33:30;4.40;94.60
73955;DHT22;62306;52.516;13.290;2023-02-01T01:35:57;4.40;94.50
73955;DHT22;62306;52.516;13.290;2023-02-01T01:38:24;4.40;94.30
73955;DHT22;62306;52.516;13.290;2023-02-01T01:40:52;4.40;94.20
73955;DHT22;62306;52.516;13.290;2023-02-01T01:43:20;4.50;93.80
73955;DHT22;62306;52.516;13.290;2023-02-01T01:45:48;4.50;93.90
73955;DHT22;62306;52.516;13.290;2023-02-01T01:48:20;4.50;93.80
73955;DHT22;62306;52.516;13.290;2023-02-01T01:50:56;4.50;94.60
73955;DHT22;62306;52.516;13.290;2023-02-01T01:53:28;4.70;94.60
73955;DHT22;62306;52.516;13.290;2023-02-01T01:56:00;4.90;94.80
73955;DHT22;62306;52.516;13.290;2023-02-01T01:58:29;5.10;93.70
73955;DHT22;62306;52.516;13.290;2023-02-01T02:00:59;5.20;92.80
73955;DHT22;62306;52.516;13.290;2023-02-01T02:03:32;5.30;92.50
73955;DHT22;62306;52.516;13.290;2023-02-01T02:06:01;5.20;92.40
73955;DHT22;62306;52.516;13.290;2023-02-01T02:08:29;5.30;92.40
73955;DHT22;62306;52.516;13.290;2023-02-01T02:10:56;5.40;92.10
73955;DHT22;62306;52.516;13.290;2023-02-01T02:13:32;5.40;92.00
73955;DHT22;62306;52.516;13.290;2023-02-01T02:16:34;5.60;91.60
73955;DHT22;62306;52.516;13.290;2023-02-01T02:19:28;5.60;91.40
73955;DHT22;62306;52.516;13.290;2023-02-01T02:22:18;5.60;90.90
73955;DHT22;62306;52.516;13.290;2023-02-01T02:27:55;5.60;91.10
73955;DHT22;62306;52.516;13.290;2023-02-01T02:30:44;5.50;91.30
73955;DHT22;62306;52.516;13.290;2023-02-01T02:36:23;5.40;91.70
73955;DHT22;62306;52.516;13.290;2023-02-01T02:39:05;5.50;91.60
73955;DHT22;62306;52.516;13.290;2023-02-01T02:41:39;5.60;91.10
73955;DHT22;62306;52.516;13.290;2023-02-01T02:44:34;5.70;90.80
73955;DHT22;62306;52.516;13.290;2023-02-01T02:47:24;5.60;90.80
73955;DHT22;62306;52.516;13.290;2023-02-01T02:50:02;5.50;90.60
73955;DHT22;62306;52.516;13.290;2023-02-01T02:52:52;5.30;91.00
73955;DHT22;62306;52.516;13.290;2023-02-01T02:55:41;5.10;91.40
73955;DHT22;62306;52.516;13.290;2023-02-01T02:58:10;5.00;91.70
73955;DHT22;62306;52.516;13.290;2023-02-01T03:00:56;4.90;91.90
73955;DHT22;62306;52.516;13.290;2023-02-01T03:03:41;4.90;92.30
73955;DHT22;62306;52.516;13.290;2023-02-01T03:06:28;4.90;92.20
73955;DHT22;62306;52.516;13.290;2023-02-01T03:08:57;4.90;92.40
73955;DHT22;62306;52.516;13.290;2023-02-01T03:11:25;4.90;92.30
73955;DHT22;62306;52.516;13.290;2023-02-01T03:14:14;4.90;92.20
73955;DHT22;62306;52.516;13.290;2023-02-01T03:16:44;5.00;92.20
73955;DHT22;62306;52.516;13.290;2023-02-01T03:19:17;5.00;92.20
73955;DHT22;62306;52.516;13.290;2023-02-01T03:21:48;5.00;92.00
73955;DHT22;62306;52.516;13.290;2023-02-01T03:24:21;5.00;92.00
73955;DHT22;62306;52.516;13.290;2023-02-01T03:27:02;4.90;92.00
73955;DHT22;62306;52.516;13.290;2023-02-01T03:29:35;4.90;92.40
73955;DHT22;62306;52.516;13.290;2023-02-01T03:32:04;4.90;92.30
73955;DHT22;62306;52.516;13.290;2023-02-01T03:34:31;4.90;92.40
73955;DHT22;62306;52.516;13.290;2023-02-01T03:37:01;4.90;92.60
73955;DHT22;62306;52.516;13.290;2023-02-01T03:39:32;4.80;92.30
73955;DHT22;62306;52.516;13.290;2023-02-01T03:42:04;4.90;92.40
73955;DHT22;62306;52.516;13.290;2023-02-01T03:44:34;4.90;92.60
73955;DHT22;62306;52.516;13.290;2023-02-01T03:47:04;4.80;92.60
73955;DHT22;62306;52.516;13.290;2023-02-01T03:49:36;4.80;92.40
73955;DHT22;62306;52.516;13.290;2023-02-01T03:52:07;4.80;92.60
73955;DHT22;62306;52.516;13.290;2023-02-01T03:54:36;4.90;92.20
73955;DHT22;62306;52.516;13.290;2023-02-01T03:57:07;5.00;92.10
73955;DHT22;62306;52.516;13.290;2023-02-01T03:59:39;5.00;92.20
73955;DHT22;62306;52.516;13.290;2023-02-01T04:02:06;5.10;91.70
73955;DHT22;62306;52.516;13.290;2023-02-01T04:04:34;5.20;91.90
73955;DHT22;62306;52.516;13.290;2023-02-01T04:07:01;5.20;91.70
73955;DHT22;62306;52.516;13.290;2023-02-01T04:09:29;5.10;91.80
73955;DHT22;62306;52.516;13.290;2023-02-01T04:11:56;5.20;91.70
73955;DHT22;62306;52.516;13.290;2023-02-01T04:14:23;5.20;91.40
73955;DHT22;62306;52.516;13.290;2023-02-01T04:16:50;5.30;91.30
73955;DHT22;62306;52.516;13.290;2023-02-01T04:19:17;5.30;91.40
73955;DHT22;62306;52.516;13.290;2023-02-01T04:21:44;5.30;91.30
73955;DHT22;62306;52.516;13.290;2023-02-01T04:24:11;5.30;91.30
73955;DHT22;62306;52.516;13.290;2023-02-01T04:26:39;5.30;91.40
73955;DHT22;62306;52.516;13.290;2023-02-01T04:29:07;5.30;91.30
73955;DHT22;62306;52.516;13.290;2023-02-01T04:31:34;5.40;91.10
73955;DHT22;62306;52.516;13.290;2023-02-01T04:34:01;5.40;90.90
73955;DHT22;62306;52.516;13.290;2023-02-01T04:36:28;5.50;90.90
73955;DHT22;62306;52.516;13.290;2023-02-01T04:38:55;5.50;90.80
73955;DHT22;62306;52.516;13.290;2023-02-01T04:41:22;5.50;90.90
73955;DHT22;62306;52.516;13.290;2023-02-01T04:43:50;5.50;91.00
73955;DHT22;62306;52.516;13.290;2023-02-01T04:46:17;5.50;91.00
73955;DHT22;62306;52.516;13.290;2023-02-01T04:48:44;5.50;90.80
73955;DHT22;62306;52.516;13.290;2023-02-01T04:51:11;5.50;91.10
73955;DHT22;62306;52.516;13.290;2023-02-01T04:53:38;5.50;90.80
73955;DHT22;62306;52.516;13.290;2023-02-01T04:56:06;5.50;90.90
73955;DHT22;62306;52.516;13.290;2023-02-01T04:58:33;5.60;91.00
73955;DHT22;62306;52.516;13.290;2023-02-01T05:01:03;5.50;91.20
73955;DHT22;62306;52.516;13.290;2023-02-01T05:03:31;5.50;91.10
73955;DHT22;62306;52.516;13.290;2023-02-01T05:05:58;5.60;91.10
73955;DHT22;62306;52.516;13.290;2023-02-01T05:08:24;5.60;91.00
73955;DHT22;62306;52.516;13.290;2023-02-01T05:10:52;5.60;90.60
73955;DHT22;62306;52.516;13.290;2023-02-01T05:13:19;5.60;90.70
73955;DHT22;62306;52.516;13.290;2023-02-01T05:16:05;5.70;90.60
73955;DHT22;62306;52.516;13.290;2023-02-01T05:18:32;5.70;90.40
73955;DHT22;62306;52.516;13.290;2023-02-01T05:20:59;5.70;90.40
73955;DHT22;62306;52.516;13.290;2023-02-01T05:23:27;5.70;90.40
73955;DHT22;62306;52.516;13.290;2023-02-01T05:25:58;5.70;90.20
73955;DHT22;62306;52.516;13.290;2023-02-01T05:28:25;5.70;90.30
73955;DHT22;62306;52.516;13.290;2023-02-01T05:30:52;5.70;90.20
73955;DHT22;62306;52.516;13.290;2023-02-01T05:33:20;5.70;90.20
73955;DHT22;62306;52.516;13.290;2023-02-01T05:35:47;5.70;90.10
73955;DHT22;62306;52.516;13.290;2023-02-01T05:38:15;5.80;90.10
73955;DHT22;62306;52.516;13.290;2023-02-01T05:40:43;5.80;90.00
73955;DHT22;62306;52.516;13.290;2023-02-01T05:43:14;5.80;90.20
73955;DHT22;62306;52.516;13.290;2023-02-01T05:45:41;5.80;90.20
73955;DHT22;62306;52.516;13.290;2023-02-01T05:48:08;5.80;90.20
73955;DHT22;62306;52.516;13.290;2023-02-01T05:50:37;5.70;90.50
73955;DHT22;62306;52.516;13.290;2023-02-01T05:53:04;5.70;90.30
73955;DHT22;62306;52.516;13.290;2023-02-01T05:55:31;5.70;90.20
73955;DHT22;62306;52.516;13.290;2023-02-01T05:57:58;5.80;90.10
73955;DHT22;62306;52.516;13.290;2023-02-01T06:00:25;5.80;90.00
73955;DHT22;62306;52.516;13.290;2023-02-01T06:02:52;5.80;90.10
73955;DHT22;62306;52.516;13.290;2023-02-01T06:05:19;5.80;90.00
73955;DHT22;62306;52.516;13.290;2023-02-01T06:07:47;5.80;90.10
73955;DHT22;62306;52.516;13.290;2023-02-01T06:10:16;5.80;90.20
73955;DHT22;62306;52.516;13.290;2023-02-01T06:12:43;5.80;90.30
73955;DHT22;62306;52.516;13.290;2023-02-01T06:15:11;5.80;90.70
73955;DHT22;62306;52.516;13.290;2023-02-01T06:17:38;5.80;90.80
73955;DHT22;62306;52.516;13.290;2023-02-01T06:20:05;5.70;91.20
73955;DHT22;62306;52.516;13.290;2023-02-01T06:22:32;5.70;91.30
73955;DHT22;62306;52.516;13.290;2023-02-01T06:25:03;5.70;91.70
73955;DHT22;62306;52.516;13.290;2023-02-01T06:27:30;5.60;91.70
73955;DHT22;62306;52.516;13.290;2023-02-01T06:29:57;5.60;91.60
73955;DHT22;62306;52.516;13.290;2023-02-01T06:32:24;5.60;91.70
73955;DHT22;62306;52.516;13.290;2023-02-01T06:34:51;5.60;91.90
73955;DHT22;62306;52.516;13.290;2023-02-01T06:37:18;5.60;91.80
73955;DHT22;62306;52.516;13.290;2023-02-01T06:39:45;5.60;91.70
73955;DHT22;62306;52.516;13.290;2023-02-01T06:42:13;5.60;91.80
73955;DHT22;62306;52.516;13.290;2023-02-01T06:44:40;5.60;91.90
73955;DHT22;62306;52.516;13.290;2023-02-01T06:47:07;5.60;91.80
73955;DHT22;62306;52.516;13.290;2023-02-01T06:49:34;5.60;91.70
73955;DHT22;62306;52.516;13.290;2023-02-01T06:52:01;5.60;91.60
73955;DHT22;62306;52.516;13.290;2023-02-01T06:54:28;5.60;91.70
73955;DHT22;62306;52.516;13.290;2023-02-01T06:56:57;5.60;91.30
73955;DHT22;62306;52.516;13.290;2023-02-01T06:59:26;5.70;91.20
73955;DHT22;62306;52.516;13.290;2023-02-01T07:01:52;5.60;91.20
73955;DHT22;62306;52.516;13.290;2023-02-01T07:04:19;5.60;91.30
73955;DHT22;62306;52.516;13.290;2023-02-01T07:06:46;5.70;90.70
73955;DHT22;62306;52.516;13.290;2023-02-01T07:09:13;5.70;90.50
73955;DHT22;62306;52.516;13.290;2023-02-01T07:11:40;5.70;90.90
73955;DHT22;62306;52.516;13.290;2023-02-01T07:14:09;5.70;90.90
73955;DHT22;62306;52.516;13.290;2023-02-01T07:16:37;5.70;90.80
73955;DHT22;62306;52.516;13.290;2023-02-01T07:19:04;5.70;91.10
73955;DHT22;62306;52.516;13.290;2023-02-01T07:21:31;5.70;91.10
73955;DHT22;62306;52.516;13.290;2023-02-01T07:23:58;5.70;91.30
73955;DHT22;62306;52.516;13.290;2023-02-01T07:26:25;5.80;91.30
73955;DHT22;62306;52.516;13.290;2023-02-01T07:28:52;5.70;91.30
73955;DHT22;62306;52.516;13.290;2023-02-01T07:31:19;5.70;91.30
73955;DHT22;62306;52.516;13.290;2023-02-01T07:33:49;5.80;91.40
73955;DHT22;62306;52.516;13.290;2023-02-01T07:36:18;5.90;91.30
73955;DHT22;62306;52.516;13.290;2023-02-01T07:38:45;5.90;91.10
73955;DHT22;62306;52.516;13.290;2023-02-01T07:41:13;6.00;91.30
73955;DHT22;62306;52.516;13.290;2023-02-01T07:43:40;5.90;91.90
73955;DHT22;62306;52.516;13.290;2023-02-01T07:46:09;5.90;91.90
73955;DHT22;62306;52.516;13.290;2023-02-01T07:48:36;5.80;92.70
73955;DHT22;62306;52.516;13.290;2023-02-01T07:51:07;5.70;93.20
73955;DHT22;62306;52.516;13.290;2023-02-01T07:53:35;5.60;93.70
73955;DHT22;62306;52.516;13.290;2023-02-01T07:56:02;5.60;93.80
73955;DHT22;62306;52.516;13.290;2023-02-01T07:58:29;5.50;94.40
73955;DHT22;62306;52.516;13.290;2023-02-01T08:00:56;5.40;95.00
73955;DHT22;62306;52.516;13.290;2023-02-01T08:03:40;5.30;95.20
73955;DHT22;62306;52.516;13.290;2023-02-01T08:06:09;5.30;95.30
73955;DHT22;62306;52.516;13.290;2023-02-01T08:08:37;5.30;95.50
73955;DHT22;62306;52.516;13.290;2023-02-01T08:11:05;5.20;95.60
73955;DHT22;62306;52.516;13.290;2023-02-01T08:13:33;5.20;96.00
73955;DHT22;62306;52.516;13.290;2023-02-01T08:16:02;5.10;96.10
73955;DHT22;62306;52.516;13.290;2023-02-01T08:18:30;5.10;96.10
73955;DHT22;62306;52.516;13.290;2023-02-01T08:21:01;5.10;96.60
73955;DHT22;62306;52.516;13.290;2023-02-01T08:23:30;5.00;96.60
73955;DHT22;62306;52.516;13.290;2023-02-01T08:26:05;5.10;96.70
73955;DHT22;62306;52.516;13.290;2023-02-01T08:28:32;5.10;96.90
73955;DHT22;62306;52.516;13.290;2023-02-01T08:30:59;5.00;96.80
73955;DHT22;62306;52.516;13.290;2023-02-01T08:33:25;5.10;97.00
73955;DHT22;62306;52.516;13.290;2023-02-01T08:35:52;5.10;97.10
73955;DHT22;62306;52.516;13.290;2023-02-01T08:38:19;5.00;97.40
73955;DHT22;62306;52.516;13.290;2023-02-01T08:40:47;5.00;97.50
73955;DHT22;62306;52.516;13.290;2023-02-01T08:43:14;5.00;97.60
73955;DHT22;62306;52.516;13.290;2023-02-01T08:45:41;5.00;97.70
73955;DHT22;62306;52.516;13.290;2023-02-01T08:48:08;5.00;97.80
73955;DHT22;62306;52.516;13.290;2023-02-01T08:50:35;5.00;98.00
73955;DHT22;62306;52.516;13.290;2023-02-01T08:53:02;5.00;98.00
73955;DHT22;62306;52.516;13.290;2023-02-01T08:55:28;5.00;98.30
73955;DHT22;62306;52.516;13.290;2023-02-01T08:57:57;5.10;97.90
73955;DHT22;62306;52.516;13.290;2023-02-01T09:00:24;5.10;97.60
73955;DHT22;62306;52.516;13.290;2023-02-01T09:02:50;5.00;97.70
73955;DHT22;62306;52.516;13.290;2023-02-01T09:05:17;5.00;97.90
73955;DHT22;62306;52.516;13.290;2023-02-01T09:07:47;5.00;97.70
73955;DHT22;62306;52.516;13.290;2023-02-01T09:10:14;4.90;97.70
73955;DHT22;62306;52.516;13.290;2023-02-01T09:12:41;5.00;97.30
73955;DHT22;62306;52.516;13.290;2023-02-01T09:15:09;5.00;97.40
73955;DHT22;62306;52.516;13.290;2023-02-01T09:17:36;5.10;97.20
73955;DHT22;62306;52.516;13.290;2023-02-01T09:20:04;5.20;97.20
73955;DHT22;62306;52.516;13.290;2023-02-01T09:22:31;5.30;96.80
73955;DHT22;62306;52.516;13.290;2023-02-01T09:24:58;5.30;96.70
73955;DHT22;62306;52.516;13.290;2023-02-01T09:27:25;5.30;96.80
73955;DHT22;62306;52.516;13.290;2023-02-01T09:29:52;5.30;96.60
73955;DHT22;62306;52.516;13.290;2023-02-01T09:32:20;5.30;96.60
73955;DHT22;62306;52.516;13.290;2023-02-01T09:34:48;5.30;96.50
73955;DHT22;62306;52.516;13.290;2023-02-01T09:37:15;5.30;96.20
73955;DHT22;62306;52.516;13.290;2023-02-01T09:39:42;5.40;96.00
73955;DHT22;62306;52.516;13.290;2023-02-01T09:42:20;5.40;96.00
73955;DHT22;62306;52.516;13.290;2023-02-01T09:45:06;5.40;95.70
73955;DHT22;62306;52.516;13.290;2023-02-01T09:47:47;5.50;95.70
73955;DHT22;62306;52.516;13.290;2023-02-01T09:50:18;5.60;95.60
73955;DHT22;62306;52.516;13.290;2023-02-01T09:52:52;5.60;95.40
73955;DHT22;62306;52.516;13.290;2023-02-01T09:55:24;5.60;95.40
73955;DHT22;62306;52.516;13.290;2023-02-01T09:57:57;5.50;95.40
73955;DHT22;62306;52.516;13.290;2023-02-01T10:00:29;5.50;95.40
73955;DHT22;62306;52.516;13.290;2023-02-01T10:02:58;5.50;95.80
73955;DHT22;62306;52.516;13.290;2023-02-01T10:05:40;5.50;95.60
73955;DHT22;62306;52.516;13.290;2023-02-01T10:08:09;5.50;95.60
73955;DHT22;62306;52.516;13.290;2023-02-01T10:10:43;5.40;95.90
73955;DHT22;62306;52.516;13.290;2023-02-01T10:13:29;5.40;96.10
73955;DHT22;62306;52.516;13.290;2023-02-01T10:16:08;5.40;96.10
73955;DHT22;62306;52.516;13.290;2023-02-01T10:18:57;5.40;96.20
73955;DHT22;62306;52.516;13.290;2023-02-01T10:21:35;5.40;96.10
73955;DHT22;62306;52.516;13.290;2023-02-01T10:27:14;5.50;95.80
73955;DHT22;62306;52.516;13.290;2023-02-01T10:29:45;5.50;95.80
73955;DHT22;62306;52.516;13.290;2023-02-01T10:32:16;5.50;95.70
73955;DHT22;62306;52.516;13.290;2023-02-01T10:34:48;5.70;95.50
73955;DHT22;62306;52.516;13.290;2023-02-01T10:37:27;5.80;95.20
73955;DHT22;62306;52.516;13.290;2023-02-01T10:39:56;5.90;94.50
73955;DHT22;62306;52.516;13.290;2023-02-01T10:42:26;5.90;94.70
73955;DHT22;62306;52.516;13.290;2023-02-01T10:44:55;5.90;95.00
73955;DHT22;62306;52.516;13.290;2023-02-01T10:47:23;5.80;95.10
73955;DHT22;62306;52.516;13.290;2023-02-01T10:49:56;5.60;95.80
73955;DHT22;62306;52.516;13.290;2023-02-01T10:52:31;5.40;96.10
73955;DHT22;62306;52.516;13.290;2023-02-01T10:58:15;5.30;97.00
73955;DHT22;62306;52.516;13.290;2023-02-01T11:00:45;5.30;97.20
73955;DHT22;62306;52.516;13.290;2023-02-01T11:03:33;5.40;97.00
73955;DHT22;62306;52.516;13.290;2023-02-01T11:06:04;5.40;97.00
73955;DHT22;62306;52.516;13.290;2023-02-01T11:08:42;5.60;96.60
73955;DHT22;62306;52.516;13.290;2023-02-01T11:11:09;5.70;96.00
73955;DHT22;62306;52.516;13.290;2023-02-01T11:13:39;5.80;95.50
73955;DHT22;62306;52.516;13.290;2023-02-01T11:16:06;5.80;95.60
73955;DHT22;62306;52.516;13.290;2023-02-01T11:18:37;5.90;95.60
73955;DHT22;62306;52.516;13.290;2023-02-01T11:21:07;6.10;95.30
73955;DHT22;62306;52.516;13.290;2023-02-01T11:23:40;6.10;95.30
73955;DHT22;62306;52.516;13.290;2023-02-01T11:26:11;6.30;94.70
73955;DHT22;62306;52.516;13.290;2023-02-01T11:28:40;6.40;94.20
73955;DHT22;62306;52.516;13.290;2023-02-01T11:31:09;6.60;94.20
73955;DHT22;62306;52.516;13.290;2023-02-01T11:33:38;6.90;93.80
73955;DHT22;62306;52.516;13.290;2023-02-01T11:36:13;7.10;92.80
73955;DHT22;62306;52.516;13.290;2023-02-01T11:38:46;7.10;92.60
73955;DHT22;62306;52.516;13.290;2023-02-01T11:41:19;7.20;92.40
73955;DHT22;62306;52.516;13.290;2023-02-01T11:43:51;7.10;92.40
73955;DHT22;62306;52.516;13.290;2023-02-01T11:46:21;7.00;92.30
73955;DHT22;62306;52.516;13.290;2023-02-01T11:48:51;7.10;92.40
73955;DHT22;62306;52.516;13.290;2023-02-01T11:51:35;7.10;92.20
73955;DHT22;62306;52.516;13.290;2023-02-01T11:54:17;7.20;92.00
73955;DHT22;62306;52.516;13.290;2023-02-01T11:56:54;7.40;91.60
73955;DHT22;62306;52.516;13.290;2023-02-01T11:59:37;7.50;91.20
73955;DHT22;62306;52.516;13.290;2023-02-01T12:02:19;7.50;90.70
73955;DHT22;62306;52.516;13.290;2023-02-01T12:05:19;7.70;90.60
73955;DHT22;62306;52.516;13.290;2023-02-01T12:08:07;7.80;90.10
73955;DHT22;62306;52.516;13.290;2023-02-01T12:10:44;7.80;88.10
73955;DHT22;62306;52.516;13.290;2023-02-01T12:13:22;7.70;88.60
73955;DHT22;62306;52.516;13.290;2023-02-01T12:16:02;7.60;89.20
73955;DHT22;62306;52.516;13.290;2023-02-01T12:18:52;7.60;89.40
73955;DHT22;62306;52.516;13.290;2023-02-01T12:21:34;7.60;89.50
73955;DHT22;62306;52.516;13.290;2023-02-01T12:24:25;7.60;89.20
73955;DHT22;62306;52.516;13.290;2023-02-01T12:27:10;7.50;89.50
73955;DHT22;62306;52.516;13.290;2023-02-01T12:29:54;7.50;89.70
73955;DHT22;62306;52.516;13.290;2023-02-01T12:32:35;7.30;90.20
73955;DHT22;62306;52.516;13.290;2023-02-01T12:35:19;7.20;90.80
73955;DHT22;62306;52.516;13.290;2023-02-01T12:37:59;7.10;90.40
73955;DHT22;62306;52.516;13.290;2023-02-01T12:40:43;7.10;90.30
73955;DHT22;62306;52.516;13.290;2023-02-01T12:43:17;7.10;90.10
73955;DHT22;62306;52.516;13.290;2023-02-01T12:45:51;7.10;90.10
73955;DHT22;62306;52.516;13.290;2023-02-01T12:48:28;7.10;89.90
73955;DHT22;62306;52.516;13.290;2023-02-01T12:50:58;7.20;89.70
73955;DHT22;62306;52.516;13.290;2023-02-01T12:53:33;7.30;88.50
73955;DHT22;62306;52.516;13.290;2023-02-01T12:56:09;7.30;88.20
73955;DHT22;62306;52.516;13.290;2023-02-01T12:58:43;7.30;88.10
73955;DHT22;62306;52.516;13.290;2023-02-01T13:01:15;7.40;87.70
73955;DHT22;62306;52.516;13.290;2023-02-01T13:03:52;7.50;87.00
73955;DHT22;62306;52.516;13.290;2023-02-01T13:06:23;7.50;86.50
73955;DHT22;62306;52.516;13.290;2023-02-01T13:08:56;7.60;86.50
73955;DHT22;62306;52.516;13.290;2023-02-01T13:11:30;7.60;85.60
73955;DHT22;62306;52.516;13.290;2023-02-01T13:14:01;7.60;85.70
73955;DHT22;62306;52.516;13.290;2023-02-01T13:16:31;7.50;85.70
73955;DHT22;62306;52.516;13.290;2023-02-01T13:19:04;7.50;86.10
73955;DHT22;62306;52.516;13.290;2023-02-01T13:21:34;7.40;86.20
73955;DHT22;62306;52.516;13.290;2023-02-01T13:24:04;7.30;87.00
73955;DHT22;62306;52.516;13.290;2023-02-01T13:26:32;7.30;86.60
73955;DHT22;62306;52.516;13.290;2023-02-01T13:29:01;7.20;86.90
73955;DHT22;62306;52.516;13.290;2023-02-01T13:34:53;7.10;87.50
73955;DHT22;62306;52.516;13.290;2023-02-01T13:40:30;7.10;87.30
73955;DHT22;62306;52.516;13.290;2023-02-01T13:43:01;7.20;88.30
73955;DHT22;62306;52.516;13.290;2023-02-01T13:45:32;7.20;86.70
73955;DHT22;62306;52.516;13.290;2023-02-01T13:48:02;7.30;86.70
73955;DHT22;62306;52.516;13.290;2023-02-01T13:50:31;7.30;86.80
73955;DHT22;62306;52.516;13.290;2023-02-01T13:53:04;7.30;86.00
73955;DHT22;62306;52.516;13.290;2023-02-01T13:55:34;7.40;86.30
73955;DHT22;62306;52.516;13.290;2023-02-01T13:58:18;7.30;86.60
73955;DHT22;62306;52.516;13.290;2023-02-01T14:00:47;7.40;86.50
73955;DHT22;62306;52.516;13.290;2023-02-01T14:03:16;7.40;86.50
73955;DHT22;62306;52.516;13.290;2023-02-01T14:08:45;7.30;88.00
73955;DHT22;62306;52.516;13.290;2023-02-01T14:11:36;7.20;89.00
73955;DHT22;62306;52.516;13.290;2023-02-01T14:17:32;6.90;91.60
73955;DHT22;62306;52.516;13.290;2023-02-01T14:20:36;6.80;91.80
73955;DHT22;62306;52.516;13.290;2023-02-01T14:23:12;6.70;92.40
73955;DHT22;62306;52.516;13.290;2023-02-01T14:25:40;6.70;92.80
73955;DHT22;62306;52.516;13.290;2023-02-01T14:28:11;6.70;92.80
73955;DHT22;62306;52.516;13.290;2023-02-01T14:30:41;6.70;93.00
73955;DHT22;62306;52.516;13.290;2023-02-01T14:33:18;6.80;93.00
73955;DHT22;62306;52.516;13.290;2023-02-01T14:35:58;6.80;92.60
73955;DHT22;62306;52.516;13.290;2023-02-01T14:38:26;6.80;92.30
73955;DHT22;62306;52.516;13.290;2023-02-01T14:41:11;6.80;92.30
73955;DHT22;62306;52.516;13.290;2023-02-01T14:43:49;6.90;92.40
73955;DHT22;62306;52.516;13.290;2023-02-01T14:46:17;6.80;92.10
73955;DHT22;62306;52.516;13.290;2023-02-01T14:48:46;6.80;92.00
73955;DHT22;62306;52.516;13.290;2023-02-01T14:51:15;6.80;91.80
73955;DHT22;62306;52.516;13.290;2023-02-01T14:53:45;6.80;91.80
73955;DHT22;62306;52.516;13.290;2023-02-01T14:56:14;6.80;91.30
73955;DHT22;62306;52.516;13.290;2023-02-01T14:58:45;6.90;91.30
73955;DHT22;62306;52.516;13.290;2023-02-01T15:01:18;6.90;91.00
73955;DHT22;62306;52.516;13.290;2023-02-01T15:03:52;6.90;90.40
73955;DHT22;62306;52.516;13.290;2023-02-01T15:06:33;6.90;90.30
73955;DHT22;62306;52.516;13.290;2023-02-01T15:09:03;6.80;90.30
73955;DHT22;62306;52.516;13.290;2023-02-01T15:11:30;6.70;91.30
73955;DHT22;62306;52.516;13.290;2023-02-01T15:13:57;6.50;92.20
73955;DHT22;62306;52.516;13.290;2023-02-01T15:16:26;6.40;92.50
73955;DHT22;62306;52.516;13.290;2023-02-01T15:19:12;6.30;92.80
73955;DHT22;62306;52.516;13.290;2023-02-01T15:21:45;6.10;93.10
73955;DHT22;62306;52.516;13.290;2023-02-01T15:24:14;6.00;93.20
73955;DHT22;62306;52.516;13.290;2023-02-01T15:26:41;5.90;93.80
73955;DHT22;62306;52.516;13.290;2023-02-01T15:29:11;5.80;94.20
73955;DHT22;62306;52.516;13.290;2023-02-01T15:31:40;5.70;94.50
73955;DHT22;62306;52.516;13.290;2023-02-01T15:34:09;5.60;94.70
73955;DHT22;62306;52.516;13.290;2023-02-01T15:36:37;5.50;94.80
73955;DHT22;62306;52.516;13.290;2023-02-01T15:39:18;5.50;95.30
73955;DHT22;62306;52.516;13.290;2023-02-01T15:41:49;5.40;95.40
73955;DHT22;62306;52.516;13.290;2023-02-01T15:44:30;5.20;95.20
73955;DHT22;62306;52.516;13.290;2023-02-01T15:46:59;5.10;96.00
73955;DHT22;62306;52.516;13.290;2023-02-01T15:49:30;5.00;96.10
73955;DHT22;62306;52.516;13.290;2023-02-01T15:52:00;5.00;96.30
73955;DHT22;62306;52.516;13.290;2023-02-01T15:54:29;4.90;96.70
73955;DHT22;62306;52.516;13.290;2023-02-01T15:57:00;4.90;96.40
73955;DHT22;62306;52.516;13.290;2023-02-01T15:59:32;4.90;96.20
73955;DHT22;62306;52.516;13.290;2023-02-01T16:02:01;4.70;96.10
73955;DHT22;62306;52.516;13.290;2023-02-01T16:04:30;4.70;96.60
73955;DHT22;62306;52.516;13.290;2023-02-01T16:07:00;4.60;96.90
73955;DHT22;62306;52.516;13.290;2023-02-01T16:09:37;4.50;96.90
73955;DHT22;62306;52.516;13.290;2023-02-01T16:12:23;4.30;96.20
73955;DHT22;62306;52.516;13.290;2023-02-01T16:14:53;4.20;96.10
73955;DHT22;62306;52.516;13.290;2023-02-01T16:17:20;4.10;96.50
73955;DHT22;62306;52.516;13.290;2023-02-01T16:19:48;4.00;97.20
73955;DHT22;62306;52.516;13.290;2023-02-01T16:22:15;3.90;97.20